sensor_id;sensor_type;location;lat;lon;timestamp;pressure;altitude;pressure_sealevel;temperature;humidity
60646;BME280;46462;32.608;-117.032;2023-03-25T00:00:43;100054.83;;;21.86;39.64
60646;BME280;46462;32.608;-117.032;2023-03-25T00:03:14;100053.35;;;21.96;39.41
60646;BME280;46462;32.608;-117.032;2023-03-25T00:05:44;100046.76;;;21.94;39.44
60646;BME280;46462;32.608;-117.032;2023-03-25T00:08:15;100046.77;;;21.95;39.42
60646;BME280;46462;32.608;-117.032;2023-03-25T00:10:51;100048.92;;;21.95;39.41
60646;BME280;46462;32.608;-117.032;2023-03-25T00:13:17;100052.02;;;21.95;39.40
60646;BME280;46462;32.608;-117.032;2023-03-25T00:15:48;100050.70;;;21.92;39.47
60646;BME280;46462;32.608;-117.032;2023-03-25T00:18:19;100049.83;;;21.92;39.48
60646;BME280;46462;32.608;-117.032;2023-03-25T00:20:50;100048.46;;;21.93;39.45
60646;BME280;46462;32.608;-117.032;2023-03-25T00:23:21;100050.56;;;21.92;39.46
60646;BME280;46462;32.608;-117.032;2023-03-25T00:25:51;100047.88;;;21.91;39.50
60646;BME280;46462;32.608;-117.032;2023-03-25T00:28:22;100045.04;;;21.92;39.48
60646;BME280;46462;32.608;-117.032;2023-03-25T00:30:53;100046.84;;;21.92;39.48
60646;BME280;46462;32.608;-117.032;2023-03-25T00:33:23;100050.69;;;21.91;39.51
60646;BME280;46462;32.608;-117.032;2023-03-25T00:35:54;100053.55;;;21.94;39.46
60646;BME280;46462;32.608;-117.032;2023-03-25T00:38:27;100055.31;;;21.95;39.45
60646;BME280;46462;32.608;-117.032;2023-03-25T00:40:56;100056.68;;;21.94;39.49
60646;BME280;46462;32.608;-117.032;2023-03-25T00:43:27;100053.94;;;21.93;39.49
60646;BME280;46462;32.608;-117.032;2023-03-25T00:45:58;100048.43;;;21.94;39.53
60646;BME280;46462;32.608;-117.032;2023-03-25T00:48:28;100046.52;;;21.94;39.50
60646;BME280;46462;32.608;-117.032;2023-03-25T00:51:00;100053.56;;;21.92;39.58
60646;BME280;46462;32.608;-117.032;2023-03-25T00:53:30;100053.48;;;21.91;39.59
60646;BME280;46462;32.608;-117.032;2023-03-25T00:56:01;100052.29;;;21.90;39.71
60646;BME280;46462;32.608;-117.032;2023-03-25T00:58:31;100052.39;;;21.88;39.83
60646;BME280;46462;32.608;-117.032;2023-03-25T01:01:08;100046.70;;;21.88;39.83
60646;BME280;46462;32.608;-117.032;2023-03-25T01:03:33;100042.50;;;21.91;39.82
60646;BME280;46462;32.608;-117.032;2023-03-25T01:06:09;100039.32;;;21.89;39.90
60646;BME280;46462;32.608;-117.032;2023-03-25T01:08:35;100034.26;;;21.91;39.94
60646;BME280;46462;32.608;-117.032;2023-03-25T01:11:14;100029.55;;;21.93;39.92
60646;BME280;46462;32.608;-117.032;2023-03-25T01:13:36;100039.19;;;21.97;39.86
60646;BME280;46462;32.608;-117.032;2023-03-25T01:16:08;100045.76;;;22.03;39.76
60646;BME280;46462;32.608;-117.032;2023-03-25T01:18:38;100051.61;;;22.07;39.80
60646;BME280;46462;32.608;-117.032;2023-03-25T01:21:09;100057.24;;;22.10;39.62
60646;BME280;46462;32.608;-117.032;2023-03-25T01:23:40;100057.89;;;22.16;39.49
60646;BME280;46462;32.608;-117.032;2023-03-25T01:26:11;100054.45;;;22.15;39.56
60646;BME280;46462;32.608;-117.032;2023-03-25T01:28:41;100052.66;;;22.16;39.58
60646;BME280;46462;32.608;-117.032;2023-03-25T01:31:13;100049.58;;;22.18;39.53
60646;BME280;46462;32.608;-117.032;2023-03-25T01:33:43;100047.78;;;22.15;39.61
60646;BME280;46462;32.608;-117.032;2023-03-25T01:36:14;100043.72;;;22.16;39.58
60646;BME280;46462;32.608;-117.032;2023-03-25T01:38:44;100039.70;;;22.15;39.58
60646;BME280;46462;32.608;-117.032;2023-03-25T01:41:16;100034.80;;;22.15;39.61
60646;BME280;46462;32.608;-117.032;2023-03-25T01:46:17;100033.28;;;22.20;39.54
60646;BME280;46462;32.608;-117.032;2023-03-25T01:48:48;100031.37;;;22.21;39.47
60646;BME280;46462;32.608;-117.032;2023-03-25T01:51:21;100024.71;;;22.23;39.40
60646;BME280;46462;32.608;-117.032;2023-03-25T01:53:50;100020.82;;;22.20;39.50
60646;BME280;46462;32.608;-117.032;2023-03-25T01:56:23;100021.48;;;22.18;39.69
60646;BME280;46462;32.608;-117.032;2023-03-25T01:58:51;100017.39;;;22.17;39.56
60646;BME280;46462;32.608;-117.032;2023-03-25T02:01:22;100015.53;;;22.14;39.68
60646;BME280;46462;32.608;-117.032;2023-03-25T02:03:53;100013.61;;;22.19;41.27
60646;BME280;46462;32.608;-117.032;2023-03-25T02:06:25;100017.66;;;22.25;44.39
60646;BME280;46462;32.608;-117.032;2023-03-25T02:08:57;100019.25;;;22.19;45.14
60646;BME280;46462;32.608;-117.032;2023-03-25T02:11:25;100024.09;;;22.20;45.70
60646;BME280;46462;32.608;-117.032;2023-03-25T02:13:58;100025.65;;;22.20;46.76
60646;BME280;46462;32.608;-117.032;2023-03-25T02:16:31;100022.67;;;22.12;49.76
60646;BME280;46462;32.608;-117.032;2023-03-25T02:26:37;100037.61;;;22.18;49.68
60646;BME280;46462;32.608;-117.032;2023-03-25T02:29:04;100044.26;;;22.17;49.27
60646;BME280;46462;32.608;-117.032;2023-03-25T02:31:37;100048.82;;;22.13;47.61
60646;BME280;46462;32.608;-117.032;2023-03-25T02:34:16;100049.31;;;22.14;47.98
60646;BME280;46462;32.608;-117.032;2023-03-25T02:36:41;100048.61;;;22.13;48.36
60646;BME280;46462;32.608;-117.032;2023-03-25T02:39:05;100051.20;;;22.15;47.52
60646;BME280;46462;32.608;-117.032;2023-03-25T02:41:40;100054.52;;;22.14;47.40
60646;BME280;46462;32.608;-117.032;2023-03-25T02:44:08;100056.53;;;22.11;47.32
60646;BME280;46462;32.608;-117.032;2023-03-25T02:46:35;100056.29;;;22.08;46.54
60646;BME280;46462;32.608;-117.032;2023-03-25T02:49:09;100057.59;;;22.06;46.24
60646;BME280;46462;32.608;-117.032;2023-03-25T02:51:39;100055.74;;;22.01;46.11
60646;BME280;46462;32.608;-117.032;2023-03-25T02:54:10;100056.25;;;22.01;46.00
60646;BME280;46462;32.608;-117.032;2023-03-25T02:56:40;100061.69;;;21.97;45.89
60646;BME280;46462;32.608;-117.032;2023-03-25T02:59:09;100064.07;;;21.97;45.64
60646;BME280;46462;32.608;-117.032;2023-03-25T03:01:40;100065.21;;;21.99;45.46
60646;BME280;46462;32.608;-117.032;2023-03-25T03:04:10;100068.87;;;21.95;45.32
60646;BME280;46462;32.608;-117.032;2023-03-25T03:06:42;100075.27;;;21.95;45.25
60646;BME280;46462;32.608;-117.032;2023-03-25T03:09:21;100080.69;;;21.93;45.38
60646;BME280;46462;32.608;-117.032;2023-03-25T03:11:48;100078.19;;;21.94;45.08
60646;BME280;46462;32.608;-117.032;2023-03-25T03:16:49;100078.20;;;21.96;44.71
60646;BME280;46462;32.608;-117.032;2023-03-25T03:19:24;100080.43;;;21.93;44.67
60646;BME280;46462;32.608;-117.032;2023-03-25T03:21:50;100091.13;;;21.94;44.53
60646;BME280;46462;32.608;-117.032;2023-03-25T03:24:20;100095.24;;;21.90;44.54
60646;BME280;46462;32.608;-117.032;2023-03-25T03:26:51;100096.25;;;21.92;44.35
60646;BME280;46462;32.608;-117.032;2023-03-25T03:29:22;100099.78;;;21.90;44.32
60646;BME280;46462;32.608;-117.032;2023-03-25T03:31:53;100107.31;;;21.88;44.35
60646;BME280;46462;32.608;-117.032;2023-03-25T03:34:23;100108.37;;;21.85;44.20
60646;BME280;46462;32.608;-117.032;2023-03-25T03:36:52;100109.40;;;21.87;44.10
60646;BME280;46462;32.608;-117.032;2023-03-25T03:39:24;100113.79;;;21.82;44.17
60646;BME280;46462;32.608;-117.032;2023-03-25T03:41:55;100107.94;;;21.83;44.09
60646;BME280;46462;32.608;-117.032;2023-03-25T03:44:26;100108.62;;;21.84;43.89
60646;BME280;46462;32.608;-117.032;2023-03-25T03:46:58;100115.73;;;21.85;43.80
60646;BME280;46462;32.608;-117.032;2023-03-25T03:49:28;100113.51;;;21.80;43.77
60646;BME280;46462;32.608;-117.032;2023-03-25T03:52:00;100116.09;;;21.79;43.77
60646;BME280;46462;32.608;-117.032;2023-03-25T03:54:28;100121.88;;;21.81;43.66
60646;BME280;46462;32.608;-117.032;2023-03-25T03:57:01;100122.33;;;21.81;43.52
60646;BME280;46462;32.608;-117.032;2023-03-25T03:59:36;100124.52;;;21.83;43.40
60646;BME280;46462;32.608;-117.032;2023-03-25T04:02:01;100126.60;;;21.83;43.37
60646;BME280;46462;32.608;-117.032;2023-03-25T04:04:30;100126.48;;;21.82;43.32
60646;BME280;46462;32.608;-117.032;2023-03-25T04:07:06;100132.66;;;21.83;43.21
60646;BME280;46462;32.608;-117.032;2023-03-25T04:09:37;100136.45;;;21.84;43.09
60646;BME280;46462;32.608;-117.032;2023-03-25T04:12:06;100138.95;;;21.83;43.04
60646;BME280;46462;32.608;-117.032;2023-03-25T04:14:33;100140.19;;;21.85;42.93
60646;BME280;46462;32.608;-117.032;2023-03-25T04:17:04;100139.74;;;21.87;42.81
60646;BME280;46462;32.608;-117.032;2023-03-25T04:19:35;100138.82;;;21.86;42.80
60646;BME280;46462;32.608;-117.032;2023-03-25T04:22:06;100140.62;;;21.86;42.71
60646;BME280;46462;32.608;-117.032;2023-03-25T04:24:36;100145.70;;;21.83;42.66
60646;BME280;46462;32.608;-117.032;2023-03-25T04:27:07;100153.24;;;21.86;42.57
60646;BME280;46462;32.608;-117.032;2023-03-25T04:29:38;100162.14;;;21.82;42.58
60646;BME280;46462;32.608;-117.032;2023-03-25T04:32:09;100165.82;;;21.79;42.61
60646;BME280;46462;32.608;-117.032;2023-03-25T04:34:40;100164.59;;;21.79;42.51
60646;BME280;46462;32.608;-117.032;2023-03-25T04:37:10;100157.57;;;21.77;42.46
60646;BME280;46462;32.608;-117.032;2023-03-25T04:39:41;100157.87;;;21.79;42.41
60646;BME280;46462;32.608;-117.032;2023-03-25T04:42:11;100159.82;;;21.81;42.29
60646;BME280;46462;32.608;-117.032;2023-03-25T04:44:42;100162.43;;;21.79;42.24
60646;BME280;46462;32.608;-117.032;2023-03-25T04:47:22;100158.82;;;21.77;42.23
60646;BME280;46462;32.608;-117.032;2023-03-25T04:49:44;100154.80;;;21.77;42.14
60646;BME280;46462;32.608;-117.032;2023-03-25T04:52:15;100149.80;;;21.74;42.14
60646;BME280;46462;32.608;-117.032;2023-03-25T04:54:45;100151.55;;;21.74;42.08
60646;BME280;46462;32.608;-117.032;2023-03-25T04:57:16;100145.36;;;21.74;42.02
60646;BME280;46462;32.608;-117.032;2023-03-25T04:59:47;100142.22;;;21.72;41.99
60646;BME280;46462;32.608;-117.032;2023-03-25T05:02:18;100146.90;;;21.73;41.91
60646;BME280;46462;32.608;-117.032;2023-03-25T05:04:49;100148.44;;;21.68;41.92
60646;BME280;46462;32.608;-117.032;2023-03-25T05:07:19;100149.05;;;21.67;41.91
60646;BME280;46462;32.608;-117.032;2023-03-25T05:09:50;100147.47;;;21.61;41.96
60646;BME280;46462;32.608;-117.032;2023-03-25T05:12:21;100150.31;;;21.63;41.89
60646;BME280;46462;32.608;-117.032;2023-03-25T05:14:52;100152.94;;;21.62;41.82
60646;BME280;46462;32.608;-117.032;2023-03-25T05:17:23;100153.18;;;21.59;41.79
60646;BME280;46462;32.608;-117.032;2023-03-25T05:19:54;100158.09;;;21.59;41.74
60646;BME280;46462;32.608;-117.032;2023-03-25T05:22:24;100159.84;;;21.60;41.67
60646;BME280;46462;32.608;-117.032;2023-03-25T05:24:55;100154.52;;;21.55;41.68
60646;BME280;46462;32.608;-117.032;2023-03-25T05:27:26;100150.05;;;21.50;41.79
60646;BME280;46462;32.608;-117.032;2023-03-25T05:29:57;100144.24;;;21.51;41.66
60646;BME280;46462;32.608;-117.032;2023-03-25T05:32:29;100142.87;;;21.53;41.57
60646;BME280;46462;32.608;-117.032;2023-03-25T05:34:59;100142.36;;;21.56;41.47
60646;BME280;46462;32.608;-117.032;2023-03-25T05:37:30;100142.10;;;21.65;41.22
60646;BME280;46462;32.608;-117.032;2023-03-25T05:40:00;100141.36;;;21.62;41.18
60646;BME280;46462;32.608;-117.032;2023-03-25T05:42:31;100138.60;;;21.66;41.11
60646;BME280;46462;32.608;-117.032;2023-03-25T05:45:02;100135.45;;;21.63;41.09
60646;BME280;46462;32.608;-117.032;2023-03-25T05:47:33;100130.62;;;21.65;40.94
60646;BME280;46462;32.608;-117.032;2023-03-25T05:50:08;100126.87;;;21.62;40.97
60646;BME280;46462;32.608;-117.032;2023-03-25T05:52:37;100131.70;;;21.64;40.89
60646;BME280;46462;32.608;-117.032;2023-03-25T05:55:11;100133.98;;;21.63;40.86
60646;BME280;46462;32.608;-117.032;2023-03-25T05:57:38;100133.47;;;21.62;40.82
60646;BME280;46462;32.608;-117.032;2023-03-25T06:00:10;100131.76;;;21.56;40.88
60646;BME280;46462;32.608;-117.032;2023-03-25T06:02:40;100133.63;;;21.58;40.79
60646;BME280;46462;32.608;-117.032;2023-03-25T06:05:11;100132.34;;;21.56;40.79
60646;BME280;46462;32.608;-117.032;2023-03-25T06:07:42;100131.55;;;21.56;40.73
60646;BME280;46462;32.608;-117.032;2023-03-25T06:10:13;100127.07;;;21.55;40.69
60646;BME280;46462;32.608;-117.032;2023-03-25T06:12:43;100126.12;;;21.50;40.75
60646;BME280;46462;32.608;-117.032;2023-03-25T06:15:15;100123.99;;;21.53;40.66
60646;BME280;46462;32.608;-117.032;2023-03-25T06:17:44;100119.79;;;21.52;40.62
60646;BME280;46462;32.608;-117.032;2023-03-25T06:20:15;100119.89;;;21.48;40.62
60646;BME280;46462;32.608;-117.032;2023-03-25T06:22:46;100116.27;;;21.51;40.49
60646;BME280;46462;32.608;-117.032;2023-03-25T06:25:19;100118.35;;;21.53;40.41
60646;BME280;46462;32.608;-117.032;2023-03-25T06:27:49;100119.81;;;21.55;40.28
60646;BME280;46462;32.608;-117.032;2023-03-25T06:30:20;100113.09;;;21.54;40.30
60646;BME280;46462;32.608;-117.032;2023-03-25T06:32:49;100106.89;;;21.54;40.21
60646;BME280;46462;32.608;-117.032;2023-03-25T06:35:20;100108.08;;;21.50;40.25
60646;BME280;46462;32.608;-117.032;2023-03-25T06:37:51;100109.98;;;21.53;40.14
60646;BME280;46462;32.608;-117.032;2023-03-25T06:40:22;100112.26;;;21.55;40.06
60646;BME280;46462;32.608;-117.032;2023-03-25T06:42:53;100109.94;;;21.50;40.08
60646;BME280;46462;32.608;-117.032;2023-03-25T06:45:23;100112.64;;;21.59;39.86
60646;BME280;46462;32.608;-117.032;2023-03-25T06:47:54;100112.03;;;21.54;39.89
60646;BME280;46462;32.608;-117.032;2023-03-25T06:50:26;100109.77;;;21.47;40.01
60646;BME280;46462;32.608;-117.032;2023-03-25T06:52:56;100102.57;;;21.43;40.04
60646;BME280;46462;32.608;-117.032;2023-03-25T06:55:27;100095.79;;;21.39;40.08
60646;BME280;46462;32.608;-117.032;2023-03-25T06:57:58;100089.97;;;21.36;40.12
60646;BME280;46462;32.608;-117.032;2023-03-25T07:00:29;100089.50;;;21.33;40.12
60646;BME280;46462;32.608;-117.032;2023-03-25T07:02:59;100091.57;;;21.36;40.02
60646;BME280;46462;32.608;-117.032;2023-03-25T07:05:30;100089.76;;;21.33;40.01
60646;BME280;46462;32.608;-117.032;2023-03-25T07:08:01;100088.40;;;21.29;40.01
60646;BME280;46462;32.608;-117.032;2023-03-25T07:10:32;100085.98;;;21.26;40.06
60646;BME280;46462;32.608;-117.032;2023-03-25T07:13:03;100090.51;;;21.29;39.95
60646;BME280;46462;32.608;-117.032;2023-03-25T07:15:34;100095.83;;;21.27;39.96
60646;BME280;46462;32.608;-117.032;2023-03-25T07:18:04;100098.20;;;21.29;39.86
60646;BME280;46462;32.608;-117.032;2023-03-25T07:20:35;100094.37;;;21.21;39.97
60646;BME280;46462;32.608;-117.032;2023-03-25T07:23:06;100091.59;;;21.21;39.91
60646;BME280;46462;32.608;-117.032;2023-03-25T07:25:37;100089.35;;;21.20;39.91
60646;BME280;46462;32.608;-117.032;2023-03-25T07:28:08;100086.24;;;21.21;39.85
60646;BME280;46462;32.608;-117.032;2023-03-25T07:30:39;100087.10;;;21.18;39.84
60646;BME280;46462;32.608;-117.032;2023-03-25T07:33:09;100089.61;;;21.15;39.88
60646;BME280;46462;32.608;-117.032;2023-03-25T07:35:40;100088.40;;;21.19;39.74
60646;BME280;46462;32.608;-117.032;2023-03-25T07:38:11;100084.96;;;21.26;39.53
60646;BME280;46462;32.608;-117.032;2023-03-25T07:40:42;100080.29;;;21.23;39.53
60646;BME280;46462;32.608;-117.032;2023-03-25T07:43:13;100076.90;;;21.24;39.48
60646;BME280;46462;32.608;-117.032;2023-03-25T07:45:44;100073.77;;;21.20;39.51
60646;BME280;46462;32.608;-117.032;2023-03-25T07:48:14;100071.05;;;21.24;39.40
60646;BME280;46462;32.608;-117.032;2023-03-25T07:50:45;100069.58;;;21.22;39.37
60646;BME280;46462;32.608;-117.032;2023-03-25T07:53:16;100067.93;;;21.21;39.34
60646;BME280;46462;32.608;-117.032;2023-03-25T07:55:47;100069.43;;;21.20;39.33
60646;BME280;46462;32.608;-117.032;2023-03-25T07:58:18;100064.65;;;21.26;39.18
60646;BME280;46462;32.608;-117.032;2023-03-25T08:00:49;100058.13;;;21.23;39.18
60646;BME280;46462;32.608;-117.032;2023-03-25T08:03:19;100051.78;;;21.24;39.09
60646;BME280;46462;32.608;-117.032;2023-03-25T08:05:50;100051.30;;;21.21;39.11
60646;BME280;46462;32.608;-117.032;2023-03-25T08:08:21;100049.28;;;21.20;39.11
60646;BME280;46462;32.608;-117.032;2023-03-25T08:10:52;100052.12;;;21.19;39.10
60646;BME280;46462;32.608;-117.032;2023-03-25T08:13:23;100053.63;;;21.19;39.02
60646;BME280;46462;32.608;-117.032;2023-03-25T08:15:54;100055.44;;;21.15;39.09
60646;BME280;46462;32.608;-117.032;2023-03-25T08:18:25;100057.76;;;21.13;39.08
60646;BME280;46462;32.608;-117.032;2023-03-25T08:20:55;100052.82;;;21.17;38.95
60646;BME280;46462;32.608;-117.032;2023-03-25T08:23:26;100051.34;;;21.14;38.94
60646;BME280;46462;32.608;-117.032;2023-03-25T08:25:57;100049.58;;;21.12;38.96
60646;BME280;46462;32.608;-117.032;2023-03-25T08:28:28;100049.08;;;21.13;38.91
60646;BME280;46462;32.608;-117.032;2023-03-25T08:30:59;100047.28;;;21.13;38.87
60646;BME280;46462;32.608;-117.032;2023-03-25T08:33:29;100049.23;;;21.07;38.94
60646;BME280;46462;32.608;-117.032;2023-03-25T08:36:01;100046.12;;;21.09;38.86
60646;BME280;46462;32.608;-117.032;2023-03-25T08:38:32;100041.68;;;21.11;38.78
60646;BME280;46462;32.608;-117.032;2023-03-25T08:41:02;100041.90;;;21.09;38.80
60646;BME280;46462;32.608;-117.032;2023-03-25T08:43:33;100039.53;;;21.07;38.76
60646;BME280;46462;32.608;-117.032;2023-03-25T08:46:04;100031.52;;;21.06;38.78
60646;BME280;46462;32.608;-117.032;2023-03-25T08:48:35;100025.10;;;21.05;38.73
60646;BME280;46462;32.608;-117.032;2023-03-25T08:51:06;100020.19;;;21.01;38.76
60646;BME280;46462;32.608;-117.032;2023-03-25T08:53:36;100013.27;;;21.01;38.74
60646;BME280;46462;32.608;-117.032;2023-03-25T08:56:08;100006.57;;;20.97;38.76
60646;BME280;46462;32.608;-117.032;2023-03-25T08:58:38;100001.53;;;20.99;38.69
60646;BME280;46462;32.608;-117.032;2023-03-25T09:01:09;100000.29;;;20.99;38.66
60646;BME280;46462;32.608;-117.032;2023-03-25T09:03:39;99993.20;;;20.95;38.67
60646;BME280;46462;32.608;-117.032;2023-03-25T09:06:10;99987.42;;;20.91;38.71
60646;BME280;46462;32.608;-117.032;2023-03-25T09:08:41;99978.79;;;20.92;38.66
60646;BME280;46462;32.608;-117.032;2023-03-25T09:11:12;99975.16;;;20.85;38.74
60646;BME280;46462;32.608;-117.032;2023-03-25T09:13:43;99970.79;;;20.87;38.67
60646;BME280;46462;32.608;-117.032;2023-03-25T09:16:14;99966.77;;;20.89;38.60
60646;BME280;46462;32.608;-117.032;2023-03-25T09:18:45;99961.14;;;20.84;38.64
60646;BME280;46462;32.608;-117.032;2023-03-25T09:21:15;99958.07;;;20.83;38.63
60646;BME280;46462;32.608;-117.032;2023-03-25T09:23:46;99956.93;;;20.82;38.59
60646;BME280;46462;32.608;-117.032;2023-03-25T09:26:17;99949.39;;;20.84;38.53
60646;BME280;46462;32.608;-117.032;2023-03-25T09:28:48;99948.22;;;20.77;38.60
60646;BME280;46462;32.608;-117.032;2023-03-25T09:31:19;99945.31;;;20.79;38.53
60646;BME280;46462;32.608;-117.032;2023-03-25T09:33:50;99947.94;;;20.79;38.50
60646;BME280;46462;32.608;-117.032;2023-03-25T09:36:21;99945.00;;;20.76;38.53
60646;BME280;46462;32.608;-117.032;2023-03-25T09:38:51;99941.08;;;20.84;38.35
60646;BME280;46462;32.608;-117.032;2023-03-25T09:41:32;99935.92;;;20.86;38.25
60646;BME280;46462;32.608;-117.032;2023-03-25T09:44:00;99928.49;;;20.84;38.22
60646;BME280;46462;32.608;-117.032;2023-03-25T09:46:24;99928.83;;;20.87;38.12
60646;BME280;46462;32.608;-117.032;2023-03-25T09:48:55;99928.91;;;20.83;38.14
60646;BME280;46462;32.608;-117.032;2023-03-25T09:51:28;99928.40;;;20.81;38.16
60646;BME280;46462;32.608;-117.032;2023-03-25T09:54:00;99924.52;;;20.81;38.13
60646;BME280;46462;32.608;-117.032;2023-03-25T09:56:30;99920.56;;;20.83;38.07
60646;BME280;46462;32.608;-117.032;2023-03-25T09:59:02;99921.38;;;20.81;38.06
60646;BME280;46462;32.608;-117.032;2023-03-25T10:01:35;99920.84;;;20.82;38.00
60646;BME280;46462;32.608;-117.032;2023-03-25T10:04:12;99913.63;;;20.79;38.03
60646;BME280;46462;32.608;-117.032;2023-03-25T10:06:32;99910.76;;;20.80;37.97
60646;BME280;46462;32.608;-117.032;2023-03-25T10:09:13;99910.53;;;20.77;38.01
60646;BME280;46462;32.608;-117.032;2023-03-25T10:11:37;99906.50;;;20.80;37.92
60646;BME280;46462;32.608;-117.032;2023-03-25T10:14:07;99902.71;;;20.80;37.87
60646;BME280;46462;32.608;-117.032;2023-03-25T10:16:43;99907.19;;;20.74;37.95
60646;BME280;46462;32.608;-117.032;2023-03-25T10:19:18;99910.88;;;20.75;37.91
60646;BME280;46462;32.608;-117.032;2023-03-25T10:21:40;99913.85;;;20.75;37.85
60646;BME280;46462;32.608;-117.032;2023-03-25T10:24:14;99906.92;;;20.76;37.82
60646;BME280;46462;32.608;-117.032;2023-03-25T10:26:43;99901.57;;;20.76;37.76
60646;BME280;46462;32.608;-117.032;2023-03-25T10:29:12;99902.75;;;20.72;37.80
60646;BME280;46462;32.608;-117.032;2023-03-25T10:31:44;99901.81;;;20.71;37.81
60646;BME280;46462;32.608;-117.032;2023-03-25T10:34:15;99908.34;;;20.71;37.77
60646;BME280;46462;32.608;-117.032;2023-03-25T10:36:45;99904.38;;;20.72;37.72
60646;BME280;46462;32.608;-117.032;2023-03-25T10:39:15;99900.78;;;20.70;37.75
60646;BME280;46462;32.608;-117.032;2023-03-25T10:41:43;99896.55;;;20.70;37.70
60646;BME280;46462;32.608;-117.032;2023-03-25T10:44:13;99891.86;;;20.68;37.70
60646;BME280;46462;32.608;-117.032;2023-03-25T10:46:45;99888.03;;;20.65;37.71
60646;BME280;46462;32.608;-117.032;2023-03-25T10:49:17;99882.31;;;20.66;37.66
60646;BME280;46462;32.608;-117.032;2023-03-25T10:51:47;99874.75;;;20.64;37.66
60646;BME280;46462;32.608;-117.032;2023-03-25T10:54:17;99869.19;;;20.61;37.65
60646;BME280;46462;32.608;-117.032;2023-03-25T10:56:49;99869.61;;;20.60;37.66
60646;BME280;46462;32.608;-117.032;2023-03-25T10:59:22;99870.02;;;20.54;37.72
60646;BME280;46462;32.608;-117.032;2023-03-25T11:01:49;99869.09;;;20.58;37.64
60646;BME280;46462;32.608;-117.032;2023-03-25T11:04:19;99871.58;;;20.58;37.59
60646;BME280;46462;32.608;-117.032;2023-03-25T11:06:52;99865.00;;;20.59;37.53
60646;BME280;46462;32.608;-117.032;2023-03-25T11:09:23;99862.10;;;20.56;37.54
60646;BME280;46462;32.608;-117.032;2023-03-25T11:11:50;99861.53;;;20.51;37.60
60646;BME280;46462;32.608;-117.032;2023-03-25T11:14:23;99859.09;;;20.49;37.61
60646;BME280;46462;32.608;-117.032;2023-03-25T11:16:55;99859.61;;;20.48;37.59
60646;BME280;46462;32.608;-117.032;2023-03-25T11:19:25;99855.66;;;20.46;37.60
60646;BME280;46462;32.608;-117.032;2023-03-25T11:21:57;99853.72;;;20.47;37.53
60646;BME280;46462;32.608;-117.032;2023-03-25T11:24:30;99856.87;;;20.43;37.56
60646;BME280;46462;32.608;-117.032;2023-03-25T11:26:56;99859.68;;;20.37;37.62
60646;BME280;46462;32.608;-117.032;2023-03-25T11:29:27;99858.22;;;20.38;37.58
60646;BME280;46462;32.608;-117.032;2023-03-25T11:34:27;99854.15;;;20.36;37.55
60646;BME280;46462;32.608;-117.032;2023-03-25T11:37:00;99852.99;;;20.32;37.62
60646;BME280;46462;32.608;-117.032;2023-03-25T11:39:33;99854.96;;;20.34;37.54
60646;BME280;46462;32.608;-117.032;2023-03-25T11:41:59;99857.48;;;20.29;37.59
60646;BME280;46462;32.608;-117.032;2023-03-25T11:44:31;99860.11;;;20.34;37.49
60646;BME280;46462;32.608;-117.032;2023-03-25T11:47:03;99858.75;;;20.43;37.27
60646;BME280;46462;32.608;-117.032;2023-03-25T11:49:35;99858.16;;;20.40;37.28
60646;BME280;46462;32.608;-117.032;2023-03-25T11:52:06;99857.91;;;20.41;37.21
60646;BME280;46462;32.608;-117.032;2023-03-25T11:54:35;99849.63;;;20.40;37.21
60646;BME280;46462;32.608;-117.032;2023-03-25T11:57:10;99839.53;;;20.36;37.21
60646;BME280;46462;32.608;-117.032;2023-03-25T11:59:38;99838.61;;;20.37;37.19
60646;BME280;46462;32.608;-117.032;2023-03-25T12:02:17;99829.48;;;20.42;37.04
60646;BME280;46462;32.608;-117.032;2023-03-25T12:04:37;99826.51;;;20.38;37.09
60646;BME280;46462;32.608;-117.032;2023-03-25T12:07:08;99824.00;;;20.36;37.09
60646;BME280;46462;32.608;-117.032;2023-03-25T12:09:37;99817.84;;;20.32;37.14
60646;BME280;46462;32.608;-117.032;2023-03-25T12:12:21;99811.47;;;20.37;37.04
60646;BME280;46462;32.608;-117.032;2023-03-25T12:14:46;99815.32;;;20.33;37.04
60646;BME280;46462;32.608;-117.032;2023-03-25T12:17:15;99818.93;;;20.33;37.03
60646;BME280;46462;32.608;-117.032;2023-03-25T12:19:45;99814.72;;;20.30;37.03
60646;BME280;46462;32.608;-117.032;2023-03-25T12:22:19;99821.21;;;20.27;37.07
60646;BME280;46462;32.608;-117.032;2023-03-25T12:24:51;99818.81;;;20.29;37.00
60646;BME280;46462;32.608;-117.032;2023-03-25T12:27:20;99813.24;;;20.24;37.05
60646;BME280;46462;32.608;-117.032;2023-03-25T12:29:43;99814.37;;;20.28;36.95
60646;BME280;46462;32.608;-117.032;2023-03-25T12:32:16;99813.20;;;20.29;36.89
60646;BME280;46462;32.608;-117.032;2023-03-25T12:34:46;99814.69;;;20.25;36.91
60646;BME280;46462;32.608;-117.032;2023-03-25T12:37:16;99815.24;;;20.27;36.86
60646;BME280;46462;32.608;-117.032;2023-03-25T12:39:45;99815.97;;;20.24;36.89
60646;BME280;46462;32.608;-117.032;2023-03-25T12:42:15;99822.77;;;20.24;36.86
60646;BME280;46462;32.608;-117.032;2023-03-25T12:44:48;99821.65;;;20.21;36.86
60646;BME280;46462;32.608;-117.032;2023-03-25T12:47:15;99823.16;;;20.24;36.80
60646;BME280;46462;32.608;-117.032;2023-03-25T12:49:48;99819.34;;;20.21;36.83
60646;BME280;46462;32.608;-117.032;2023-03-25T12:52:14;99818.60;;;20.23;36.74
60646;BME280;46462;32.608;-117.032;2023-03-25T12:54:47;99812.23;;;20.17;36.82